createdAt,value
2019-05-16T00:03:31.407Z,101404.09
2019-05-16T00:08:34.818Z,101402.30
2019-05-16T00:13:38.463Z,101398.03
2019-05-16T00:18:41.949Z,101390.61
2019-05-16T00:23:45.446Z,101384.09
2019-05-16T00:28:48.880Z,101372.75
2019-05-16T00:33:52.296Z,101376.72
2019-05-16T00:38:57.724Z,101368.41
2019-05-16T00:44:00.855Z,101369.73
2019-05-16T00:49:04.347Z,101354.49
2019-05-16T00:54:08.363Z,101344.12
2019-05-16T00:59:12.096Z,101351.11
2019-05-16T01:04:15.537Z,101343.73
2019-05-16T01:09:18.985Z,101342.37
2019-05-16T01:14:22.363Z,101339.75
2019-05-16T01:19:27.747Z,101330.24
2019-05-16T01:24:30.935Z,101332.42
2019-05-16T01:29:34.382Z,101325.95
2019-05-16T01:34:37.948Z,101327.25
2019-05-16T01:39:41.342Z,101315.98
2019-05-16T01:44:44.842Z,101318.58
2019-05-16T01:49:48.880Z,101312.55
2019-05-16T01:54:52.506Z,101307.78
2019-05-16T01:59:55.935Z,101301.25
2019-05-16T02:04:59.417Z,101299.11
2019-05-16T02:10:02.922Z,101294.72
2019-05-16T02:15:08.172Z,101294.30
2019-05-16T02:20:12.001Z,101296.89
2019-05-16T02:25:18.578Z,101289.10
2019-05-16T02:30:22.132Z,101287.41
2019-05-16T02:35:25.649Z,101289.15
2019-05-16T02:40:31.242Z,101283.55
2019-05-16T02:45:34.394Z,101276.56
2019-05-16T02:50:37.838Z,101276.55
2019-05-16T02:55:41.270Z,101273.11
2019-05-16T03:00:44.796Z,101278.30
2019-05-16T03:05:50.814Z,101282.21
2019-05-16T03:10:55.965Z,101271.77
2019-05-16T03:16:02.171Z,101266.16
2019-05-16T03:21:07.355Z,101253.93
2019-05-16T03:26:11.703Z,101247.06
2019-05-16T03:31:16.201Z,101251.40
2019-05-16T03:36:25.298Z,101246.18
2019-05-16T03:41:24.962Z,101246.23
2019-05-16T03:46:30.918Z,101251.05
2019-05-16T03:51:33.543Z,101242.35
2019-05-16T03:56:36.969Z,101241.47
2019-05-16T04:01:41.159Z,101237.15
2019-05-16T04:06:44.613Z,101242.83
2019-05-16T04:11:50.875Z,101238.46
2019-05-16T04:16:53.332Z,101231.49
2019-05-16T04:21:56.770Z,101232.78
2019-05-16T04:27:00.975Z,101228.88
2019-05-16T04:32:04.560Z,101225.39
2019-05-16T04:37:11.280Z,101228.00
2019-05-16T04:42:13.152Z,101229.72
2019-05-16T04:47:16.579Z,101233.17
2019-05-16T04:52:21.725Z,101231.85
2019-05-16T04:57:25.160Z,101237.05
2019-05-16T05:02:31.003Z,101230.09
2019-05-16T05:07:33.730Z,101236.62
2019-05-16T05:12:37.136Z,101228.42
2019-05-16T05:17:41.493Z,101225.36
2019-05-16T05:22:44.981Z,101225.33
2019-05-16T05:27:50.113Z,101223.53
2019-05-16T05:32:53.718Z,101227.91
2019-05-16T05:37:57.149Z,101228.78
2019-05-16T05:43:00.574Z,101224.45
2019-05-16T05:48:04.084Z,101226.59
2019-05-16T05:53:10.056Z,101223.96
2019-05-16T05:58:12.713Z,101224.34
2019-05-16T06:03:16.170Z,101214.79
2019-05-16T06:08:20.660Z,101212.10
2019-05-16T06:13:24.026Z,101219.83
2019-05-16T06:18:27.456Z,101219.05
2019-05-16T06:23:31.280Z,101212.05
2019-05-16T06:28:34.818Z,101202.45
2019-05-16T06:33:38.239Z,101199.37
2019-05-16T06:38:42.507Z,101197.69
2019-05-16T06:43:45.935Z,101196.75
2019-05-16T06:48:50.613Z,101194.39
2019-05-16T06:53:54.226Z,101187.37
2019-05-16T06:58:57.710Z,101187.37
2019-05-16T07:04:01.146Z,101180.94
2019-05-16T07:09:06.424Z,101185.96
2019-05-16T07:14:10.590Z,101181.58
2019-05-16T07:19:14.228Z,101176.25
2019-05-16T07:24:19.757Z,101178.83
2019-05-16T07:29:22.848Z,101180.91
2019-05-16T07:34:26.276Z,101174.80
2019-05-16T07:39:30.672Z,101169.27
2019-05-16T07:44:34.309Z,101164.02
2019-05-16T07:49:37.740Z,101153.45
2019-05-16T07:54:41.143Z,101153.27
2019-05-16T07:59:44.590Z,101140.77
2019-05-16T08:04:50.149Z,101146.88
2019-05-16T08:09:53.318Z,101139.77
2019-05-16T08:14:56.746Z,101141.87
2019-05-16T08:20:00.453Z,101137.38
2019-05-16T08:25:05.809Z,101128.37
2019-05-16T08:30:11.221Z,101127.55
2019-05-16T08:35:14.824Z,101123.62
2019-05-16T08:40:21.381Z,101113.07
2019-05-16T08:45:23.730Z,101113.04
2019-05-16T08:50:27.285Z,101104.18
2019-05-16T08:55:31.431Z,101099.25
2019-05-16T09:00:34.822Z,101094.62
2019-05-16T09:05:42.629Z,101082.11
2019-05-16T09:10:51.449Z,101088.34
2019-05-16T09:15:48.545Z,101084.05
2019-05-16T09:20:53.349Z,101085.06
2019-05-16T09:25:58.477Z,101082.41
2019-05-16T09:31:02.091Z,101078.70
2019-05-16T09:36:08.043Z,101066.83
2019-05-16T09:41:10.710Z,101065.19
2019-05-16T09:46:17.186Z,101063.02
2019-05-16T09:51:21.441Z,101063.46
2019-05-16T09:56:26.982Z,101058.63
2019-05-16T10:01:30.152Z,101052.98
2019-05-16T10:06:33.713Z,101047.66
2019-05-16T10:11:42.115Z,101041.84
2019-05-16T10:16:42.395Z,101035.01
2019-05-16T10:21:45.967Z,101037.06
2019-05-16T10:26:53.854Z,101032.39
2019-05-16T10:31:56.844Z,101036.70
2019-05-16T10:36:59.952Z,101029.50
2019-05-16T10:42:03.351Z,101022.95
2019-05-16T10:47:07.604Z,101014.05
2019-05-16T10:52:11.155Z,101012.99
2019-05-16T10:57:14.671Z,101007.18
2019-05-16T11:02:18.326Z,100993.34
2019-05-16T11:07:21.863Z,100989.89
2019-05-16T11:12:45.200Z,100978.63
2019-05-16T11:17:30.443Z,100969.86
2019-05-16T11:22:36.772Z,100967.40
2019-05-16T11:27:39.047Z,100967.23
2019-05-16T11:32:42.466Z,100974.56
2019-05-16T11:37:47.208Z,100962.14
2019-05-16T11:43:05.675Z,100957.78
2019-05-16T11:47:56.700Z,100954.52
2019-05-16T11:53:00.235Z,100946.73
2019-05-16T11:58:03.728Z,100941.72
2019-05-16T12:03:07.568Z,100928.70
2019-05-16T12:08:10.997Z,100927.61
2019-05-16T12:13:27.314Z,100927.23
2019-05-16T12:18:19.682Z,100929.78
2019-05-16T12:23:23.117Z,100913.59
2019-05-16T12:28:27.577Z,100921.42
2019-05-16T12:33:31.015Z,100920.31
2019-05-16T12:38:34.445Z,100910.33
2019-05-16T12:43:48.719Z,100914.55
2019-05-16T12:48:43.034Z,100904.72
2019-05-16T12:53:47.752Z,100892.52
2019-05-16T12:58:51.483Z,100883.57
2019-05-16T13:03:54.912Z,100885.64
2019-05-16T13:08:58.335Z,100879.17
2019-05-16T13:14:06.466Z,100870.64
2019-05-16T13:19:07.257Z,100868.11
2019-05-16T13:24:10.734Z,100852.39
2019-05-16T13:29:14.160Z,100841.05
2019-05-16T13:34:18.036Z,100827.90
2019-05-16T13:39:21.755Z,100832.40
2019-05-16T13:44:27.378Z,100825.93
2019-05-16T13:49:30.403Z,100833.30
2019-05-16T13:54:36.251Z,100835.45
2019-05-16T13:59:38.957Z,100838.62
2019-05-16T14:04:42.446Z,100820.72
2019-05-16T14:09:47.155Z,100807.97
2019-05-16T14:14:51.289Z,100804.43
2019-05-16T14:19:57.146Z,100791.23
2019-05-16T14:24:59.856Z,100785.99
2019-05-16T14:30:07.353Z,100773.19
2019-05-16T14:35:09.413Z,100767.99
2019-05-16T14:40:13.557Z,100757.33
2019-05-16T14:45:18.831Z,100757.00
2019-05-16T14:50:22.333Z,100750.88
2019-05-16T14:55:27.476Z,100745.20
2019-05-16T15:00:31.148Z,100736.80
2019-05-16T15:05:41.811Z,100732.64
2019-05-16T15:10:39.723Z,100729.95
2019-05-16T15:15:43.224Z,100717.36
2019-05-16T15:20:48.392Z,100715.16
2019-05-16T15:25:51.801Z,100710.11
2019-05-16T15:30:57.348Z,100696.48
2019-05-16T15:36:00.456Z,100697.16
2019-05-16T15:41:03.884Z,100690.61
2019-05-16T15:46:08.429Z,100687.11
2019-05-16T15:51:12.686Z,100675.48
2019-05-16T15:56:17.852Z,100670.71
2019-05-16T16:01:21.484Z,100665.67
2019-05-16T16:06:27.475Z,100654.58
2019-05-16T16:11:30.329Z,100647.14
2019-05-16T16:16:33.664Z,100642.74
2019-05-16T16:21:37.940Z,100636.73
2019-05-16T16:26:41.723Z,100625.86
2019-05-16T16:31:47.501Z,100618.47
2019-05-16T16:36:50.297Z,100610.56
2019-05-16T16:41:53.801Z,100615.56
2019-05-16T16:46:57.465Z,100618.62
2019-05-16T16:52:00.932Z,100618.20
2019-05-16T16:57:07.490Z,100613.98
2019-05-16T17:02:09.518Z,100612.79
2019-05-16T17:07:12.978Z,100609.39
2019-05-16T17:12:16.401Z,100604.98
2019-05-16T17:17:19.821Z,100604.51
2019-05-16T17:22:23.261Z,100598.08
2019-05-16T17:27:26.995Z,100592.37
2019-05-16T17:32:30.422Z,100581.66
2019-05-16T17:37:33.861Z,100572.91
2019-05-16T17:42:37.453Z,100568.39
2019-05-16T17:47:40.999Z,100564.28
2019-05-16T17:52:47.305Z,100565.50
2019-05-16T17:58:07.941Z,100562.79
2019-05-16T18:03:18.602Z,100561.42
2019-05-16T18:13:52.494Z,100560.75
2019-05-16T18:18:57.546Z,100555.06
2019-05-16T18:24:01.001Z,100550.05
2019-05-16T18:29:06.716Z,100547.41
2019-05-16T18:34:09.757Z,100543.53
2019-05-16T18:39:13.187Z,100543.12
2019-05-16T18:44:16.978Z,100537.55
2019-05-16T18:49:20.401Z,100539.81
2019-05-16T18:54:26.489Z,100534.94
2019-05-16T18:59:28.977Z,100530.52
2019-05-16T19:04:32.489Z,100524.50
2019-05-16T19:09:37.449Z,100526.28
2019-05-16T19:14:41.054Z,100521.99
2019-05-16T19:19:46.447Z,100522.89
2019-05-16T19:24:49.762Z,100512.99
2019-05-16T19:29:53.187Z,100513.41
2019-05-16T19:34:57.429Z,100505.13
2019-05-16T19:40:00.920Z,100510.34
2019-05-16T19:45:09.070Z,100511.50
2019-05-16T19:50:12.755Z,100511.16
2019-05-16T19:55:16.253Z,100510.64
2019-05-16T20:00:20.776Z,100513.19
2019-05-16T20:05:26.507Z,100509.59
2019-05-16T20:10:29.585Z,100511.78
2019-05-16T20:15:33.107Z,100507.91
2019-05-16T20:20:37.252Z,100502.27
2019-05-16T20:25:40.839Z,100495.27
2019-05-16T20:30:44.272Z,100496.67
2019-05-16T20:35:47.687Z,100494.70
2019-05-16T20:40:51.151Z,100503.36
2019-05-16T20:45:56.608Z,100489.20
2019-05-16T20:50:59.721Z,100478.77
2019-05-16T20:56:03.160Z,100480.25
2019-05-16T21:01:07.172Z,100481.94
2019-05-16T21:06:10.723Z,100473.64
2019-05-16T21:11:14.142Z,100475.58
2019-05-16T21:16:18.272Z,100474.13
2019-05-16T21:21:21.780Z,100475.48
2019-05-16T21:26:26.271Z,100476.61
2019-05-16T21:31:29.864Z,100473.45
2019-05-16T21:36:33.281Z,100468.78
2019-05-16T21:41:36.714Z,100472.70
2019-05-16T21:46:40.130Z,100467.89
2019-05-16T21:51:43.612Z,100467.80
2019-05-16T21:56:47.041Z,100468.69
2019-05-16T22:01:50.955Z,100463.95
2019-05-16T22:06:56.543Z,100461.81
2019-05-16T22:11:59.601Z,100450.17
2019-05-16T22:17:03.032Z,100455.58
2019-05-16T22:22:07.415Z,100455.39
2019-05-16T22:27:10.993Z,100449.35
2019-05-16T22:32:16.435Z,100440.70
2019-05-16T22:37:19.534Z,100432.78
2019-05-16T22:42:22.964Z,100422.26
2019-05-16T22:47:26.710Z,100415.30
2019-05-16T22:52:30.290Z,100415.27
2019-05-16T22:57:33.779Z,100416.08
2019-05-16T23:02:37.211Z,100410.02
2019-05-16T23:07:40.656Z,100404.31
2019-05-16T23:12:44.078Z,100408.16
2019-05-16T23:17:47.504Z,100399.92
2019-05-16T23:22:50.948Z,100395.22
2019-05-16T23:27:56.609Z,100396.08
2019-05-16T23:32:59.587Z,100403.94
2019-05-16T23:38:14.674Z,100393.67
2019-05-16T23:43:08.185Z,100395.02
2019-05-16T23:48:11.625Z,100393.30
2019-05-16T23:53:16.425Z,100383.79
2019-05-16T23:58:20.006Z,100384.34
